Time;durP1;ratioP1;P1;durP2;ratioP2;P2;SDS_P1;SDS_P2;PMS_P1;PMS_P2;Temp;Humidity;BMP_temperature;BMP_pressure;BME280_temperature;BME280_humidity;BME280_pressure;Samples;Min_cycle;Max_cycle;Signal;HPM_P1;HPM_P2
2021/03/12 00:00:41;;;;;;;9.48;2.10;;;7.70;47.90;;;;;;5013716;28;20750;-73
2021/03/12 00:03:15;;;;;;;5.50;1.70;;;7.70;47.20;;;;;;5014021;28;20791;-71
2021/03/12 00:05:51;;;;;;;11.15;2.30;;;7.80;46.40;;;;;;5014092;28;20456;-71
2021/03/12 00:08:21;;;;;;;2.50;1.40;;;7.80;46.40;;;;;;5013982;28;20416;-72
2021/03/12 00:10:47;;;;;;;9.10;1.88;;;7.70;48.00;;;;;;4996094;28;20439;-71
2021/03/12 00:13:13;;;;;;;5.60;1.90;;;7.60;48.40;;;;;;5013510;28;20435;-71
2021/03/12 00:15:38;;;;;;;6.63;2.08;;;7.60;48.30;;;;;;5013817;28;20385;-73
2021/03/12 00:18:04;;;;;;;8.43;2.23;;;7.70;47.70;;;;;;5019276;28;20402;-72
2021/03/12 00:20:33;;;;;;;7.20;2.30;;;7.60;48.60;;;;;;5033457;28;20474;-72
2021/03/12 00:22:59;;;;;;;11.88;2.58;;;7.70;47.90;;;;;;5028252;28;20418;-72
2021/03/12 00:25:29;;;;;;;11.63;2.17;;;7.70;46.80;;;;;;5013395;28;20389;-71
2021/03/12 00:27:55;;;;;;;10.47;2.17;;;7.70;46.50;;;;;;5016793;28;20924;-72
2021/03/12 00:30:21;;;;;;;7.00;1.90;;;7.70;46.30;;;;;;5032224;28;20462;-71
2021/03/12 00:32:47;;;;;;;9.63;2.10;;;7.70;47.20;;;;;;5013354;28;20385;-72
2021/03/12 00:35:13;;;;;;;6.45;1.90;;;7.70;47.80;;;;;;5013526;28;20389;-72
2021/03/12 00:37:39;;;;;;;5.63;1.90;;;7.60;48.60;;;;;;5013084;28;20760;-72
2021/03/12 00:40:20;;;;;;;8.70;2.60;;;7.60;49.50;;;;;;5012472;28;20402;-72
2021/03/12 00:42:46;;;;;;;10.20;2.85;;;7.60;50.40;;;;;;5021531;28;20413;-71
2021/03/12 00:45:14;;;;;;;9.50;2.20;;;7.60;51.60;;;;;;5021447;28;20801;-72
2021/03/12 00:47:41;;;;;;;11.90;3.10;;;7.60;50.50;;;;;;5013797;28;20395;-71
2021/03/12 00:50:08;;;;;;;10.90;2.50;;;7.60;50.70;;;;;;5012951;28;20430;-71
2021/03/12 00:52:33;;;;;;;10.57;2.95;;;7.60;51.60;;;;;;5031785;28;20873;-72
2021/03/12 00:54:59;;;;;;;13.10;2.65;;;7.60;52.00;;;;;;5029987;28;20631;-71
2021/03/12 00:57:24;;;;;;;12.32;2.70;;;7.70;50.20;;;;;;5012715;28;20470;-72
2021/03/12 00:59:50;;;;;;;9.75;2.85;;;7.70;50.70;;;;;;5013136;28;20385;-73
2021/03/12 01:02:15;;;;;;;13.10;2.85;;;7.70;51.80;;;;;;5013603;28;20491;-73
2021/03/12 01:04:41;;;;;;;11.52;2.90;;;7.70;52.30;;;;;;5016007;28;20380;-74
2021/03/12 01:07:07;;;;;;;9.95;3.40;;;7.70;52.70;;;;;;5016785;28;20984;-71
2021/03/12 01:09:32;;;;;;;12.90;3.05;;;7.70;52.70;;;;;;5017033;28;20786;-72
2021/03/12 01:11:58;;;;;;;13.33;3.00;;;7.80;50.40;;;;;;5033288;28;20413;-72
2021/03/12 01:14:24;;;;;;;13.17;2.77;;;7.80;50.10;;;;;;5021394;28;20451;-71
2021/03/12 01:16:51;;;;;;;10.40;2.85;;;7.90;49.30;;;;;;5016079;28;20428;-74
2021/03/12 01:19:17;;;;;;;17.50;2.92;;;7.80;49.90;;;;;;5013993;28;20439;-74
2021/03/12 01:21:43;;;;;;;9.05;2.63;;;7.90;48.40;;;;;;5015195;28;20380;-71
2021/03/12 01:24:09;;;;;;;18.50;3.17;;;7.90;47.80;;;;;;5020616;28;20410;-72
2021/03/12 01:26:34;;;;;;;9.33;2.60;;;8.00;46.80;;;;;;5035006;28;20387;-72
2021/03/12 01:29:00;;;;;;;7.55;2.80;;;7.90;47.10;;;;;;5032413;28;20414;-73
2021/03/12 01:31:25;;;;;;;13.23;3.30;;;7.90;48.00;;;;;;5032222;28;20383;-71
2021/03/12 01:33:51;;;;;;;15.85;2.85;;;7.80;49.80;;;;;;5033839;28;20406;-72
2021/03/12 01:36:17;;;;;;;9.55;3.13;;;7.70;51.00;;;;;;5034933;28;20379;-72
2021/03/12 01:38:42;;;;;;;8.90;3.15;;;7.70;51.50;;;;;;5030228;28;20415;-72
2021/03/12 01:41:08;;;;;;;9.23;3.10;;;7.70;49.20;;;;;;5025455;28;20399;-71
2021/03/12 01:43:33;;;;;;;12.48;2.90;;;7.70;49.80;;;;;;5025033;28;20420;-73
2021/03/12 01:45:59;;;;;;;11.77;3.05;;;7.70;50.00;;;;;;5013324;28;20396;-71
2021/03/12 01:48:25;;;;;;;14.43;3.60;;;7.70;48.70;;;;;;5012203;28;20472;-73
2021/03/12 01:50:55;;;;;;;10.98;3.33;;;7.80;47.40;;;;;;5012038;28;20747;-72
2021/03/12 01:53:22;;;;;;;11.95;3.22;;;7.80;46.30;;;;;;5012469;28;20902;-73
2021/03/12 01:55:49;;;;;;;11.80;3.33;;;7.80;46.40;;;;;;5014347;28;20404;-73
2021/03/12 01:58:16;;;;;;;12.63;3.83;;;7.80;46.60;;;;;;5014253;28;20417;-72
2021/03/12 02:00:42;;;;;;;9.63;3.20;;;7.80;44.60;;;;;;5013349;28;20393;-72
2021/03/12 02:03:09;;;;;;;8.30;3.20;;;7.80;45.50;;;;;;5013370;28;20498;-72
2021/03/12 02:05:36;;;;;;;10.48;2.83;;;7.80;43.80;;;;;;5013747;28;20389;-72
2021/03/12 02:08:03;;;;;;;9.75;2.97;;;7.90;43.40;;;;;;5013359;28;20431;-73
2021/03/12 02:10:29;;;;;;;5.83;2.73;;;7.80;43.70;;;;;;5013097;28;20837;-71
2021/03/12 02:13:08;;;;;;;10.25;2.80;;;7.80;42.20;;;;;;5012378;28;20385;-71
2021/03/12 02:15:48;;;;;;;10.93;3.20;;;7.90;41.50;;;;;;5011845;28;20381;-72
2021/03/12 02:18:28;;;;;;;10.85;2.80;;;7.80;41.50;;;;;;5011531;28;20404;-71
2021/03/12 02:20:59;;;;;;;9.57;2.65;;;7.90;40.80;;;;;;4993809;28;20435;-72
2021/03/12 02:23:43;;;;;;;9.68;2.42;;;7.80;40.80;;;;;;5021841;28;20965;-72
2021/03/12 02:26:17;;;;;;;9.65;2.67;;;7.80;40.10;;;;;;5023814;28;20400;-72
2021/03/12 02:28:45;;;;;;;13.57;3.00;;;7.80;39.70;;;;;;5011722;28;20377;-72
2021/03/12 02:31:11;;;;;;;7.53;2.50;;;7.80;40.10;;;;;;5011517;28;20392;-72
2021/03/12 02:33:37;;;;;;;7.55;2.10;;;7.90;39.10;;;;;;5011474;28;20404;-72
2021/03/12 02:36:05;;;;;;;10.38;3.25;;;7.90;38.60;;;;;;5011497;28;20396;-72
2021/03/12 02:38:32;;;;;;;9.15;2.55;;;7.90;38.90;;;;;;5031167;28;20918;-72
2021/03/12 02:41:00;;;;;;;11.98;2.13;;;7.80;38.40;;;;;;5019086;28;20389;-71
2021/03/12 02:43:26;;;;;;;8.85;2.70;;;7.80;38.20;;;;;;4993707;28;20443;-73
2021/03/12 02:45:54;;;;;;;9.90;2.50;;;7.80;38.60;;;;;;5011042;28;20475;-71
2021/03/12 02:48:21;;;;;;;9.15;2.80;;;7.80;38.20;;;;;;5011034;28;20388;-71
2021/03/12 02:50:47;;;;;;;5.27;2.10;;;7.80;38.20;;;;;;5017825;28;20482;-71
2021/03/12 02:53:13;;;;;;;11.10;2.38;;;7.80;37.20;;;;;;5030791;28;20467;-71
2021/03/12 02:55:40;;;;;;;9.02;2.30;;;7.80;37.80;;;;;;5030857;28;20409;-72
2021/03/12 02:58:06;;;;;;;11.88;2.63;;;7.80;37.60;;;;;;5028996;28;20415;-71
2021/03/12 03:00:34;;;;;;;10.52;3.08;;;7.80;37.10;;;;;;5022996;28;20404;-72
2021/03/12 03:03:01;;;;;;;8.40;2.67;;;7.90;36.40;;;;;;4992557;28;20413;-71
2021/03/12 03:05:28;;;;;;;9.80;2.50;;;7.90;36.20;;;;;;5010694;28;20402;-72
2021/03/12 03:07:55;;;;;;;10.40;3.17;;;7.90;36.20;;;;;;5010986;28;20476;-73
2021/03/12 03:10:24;;;;;;;10.25;2.30;;;7.90;36.00;;;;;;5010928;28;20436;-72
2021/03/12 03:12:52;;;;;;;10.50;2.20;;;7.90;36.50;;;;;;5011151;28;20463;-72
2021/03/12 03:15:20;;;;;;;7.47;2.50;;;7.90;36.20;;;;;;5011042;28;20401;-72
2021/03/12 03:17:47;;;;;;;10.45;2.72;;;7.90;36.20;;;;;;4981405;28;20402;-71
2021/03/12 03:20:15;;;;;;;13.93;3.10;;;7.90;36.30;;;;;;4991110;28;20484;-72
2021/03/12 03:22:41;;;;;;;8.85;2.70;;;7.90;36.80;;;;;;4991300;28;20515;-72
2021/03/12 03:25:09;;;;;;;11.75;2.85;;;7.90;37.20;;;;;;4991049;28;20764;-72
2021/03/12 03:27:35;;;;;;;13.35;3.10;;;7.90;36.90;;;;;;4991961;28;20393;-72
2021/03/12 03:30:01;;;;;;;9.93;2.70;;;7.90;36.60;;;;;;5010573;28;20381;-72
2021/03/12 03:32:27;;;;;;;9.82;2.72;;;8.00;36.50;;;;;;5010457;28;20409;-72
2021/03/12 03:34:53;;;;;;;11.35;2.70;;;8.00;36.50;;;;;;5010846;28;20391;-71
2021/03/12 03:37:18;;;;;;;10.40;2.80;;;8.00;36.80;;;;;;5021680;28;20434;-71
2021/03/12 03:39:44;;;;;;;10.98;2.70;;;7.90;37.80;;;;;;5030497;28;20388;-72
2021/03/12 03:42:11;;;;;;;16.23;3.42;;;8.00;37.40;;;;;;5018041;28;20490;-70
2021/03/12 03:44:39;;;;;;;12.80;3.35;;;8.00;36.90;;;;;;5032201;28;20440;-72
2021/03/12 03:47:07;;;;;;;13.70;2.80;;;8.00;37.10;;;;;;5032673;28;20398;-72
2021/03/12 03:49:38;;;;;;;17.97;3.70;;;8.00;36.80;;;;;;5015460;28;20481;-72
2021/03/12 03:52:07;;;;;;;10.40;2.80;;;7.90;37.00;;;;;;5031701;28;20398;-72
2021/03/12 03:54:34;;;;;;;10.85;3.00;;;7.90;36.20;;;;;;5014531;28;20459;-73
2021/03/12 03:57:01;;;;;;;15.50;3.40;;;7.90;36.20;;;;;;5010651;28;20404;-72
2021/03/12 03:59:27;;;;;;;10.05;3.05;;;7.90;35.90;;;;;;5013173;28;20393;-71
2021/03/12 04:01:54;;;;;;;15.05;3.60;;;7.90;34.70;;;;;;5013533;28;20388;-73
2021/03/12 04:04:21;;;;;;;17.55;3.58;;;7.90;35.20;;;;;;5012800;28;20814;-71
2021/03/12 04:06:47;;;;;;;8.30;3.03;;;7.90;35.30;;;;;;5014642;28;20386;-71
2021/03/12 04:09:14;;;;;;;9.93;2.50;;;7.90;35.50;;;;;;5027470;28;20408;-72
2021/03/12 04:11:42;;;;;;;18.23;4.10;;;7.80;35.80;;;;;;5015079;28;20446;-71
2021/03/12 04:14:08;;;;;;;9.48;2.60;;;7.80;35.50;;;;;;5014410;28;20424;-71
2021/03/12 04:16:35;;;;;;;13.15;2.90;;;7.80;35.00;;;;;;5014883;28;20747;-71
2021/03/12 04:19:02;;;;;;;9.93;2.63;;;7.80;34.90;;;;;;4979967;28;20395;-72
2021/03/12 04:21:28;;;;;;;10.27;2.33;;;7.80;35.20;;;;;;5007093;28;20439;-72
2021/03/12 04:23:55;;;;;;;12.85;2.70;;;7.70;35.90;;;;;;5016827;28;20972;-72
2021/03/12 04:26:21;;;;;;;8.47;2.63;;;7.70;35.00;;;;;;5016493;28;20913;-72
2021/03/12 04:28:47;;;;;;;15.52;3.38;;;7.60;35.00;;;;;;5016500;28;20377;-72
2021/03/12 04:31:13;;;;;;;11.88;2.95;;;7.50;35.50;;;;;;5017299;28;20863;-72
2021/03/12 04:33:41;;;;;;;12.18;2.33;;;7.60;35.00;;;;;;5016288;28;20524;-71
2021/03/12 04:36:07;;;;;;;13.45;2.70;;;7.60;34.40;;;;;;5029054;28;20410;-70
2021/03/12 04:38:34;;;;;;;9.73;2.45;;;7.60;34.60;;;;;;5033179;28;20753;-72
2021/03/12 04:41:01;;;;;;;13.95;3.05;;;7.60;34.30;;;;;;5021176;28;20385;-71
2021/03/12 04:43:27;;;;;;;9.38;2.42;;;7.60;34.70;;;;;;5013383;28;20802;-71
2021/03/12 04:45:52;;;;;;;8.35;2.55;;;7.60;34.30;;;;;;5013712;28;20385;-71
2021/03/12 04:48:18;;;;;;;9.63;2.70;;;7.70;34.30;;;;;;5032926;28;20811;-71
2021/03/12 04:50:44;;;;;;;9.90;2.57;;;7.70;34.90;;;;;;5033274;28;20409;-71
2021/03/12 04:53:11;;;;;;;12.35;3.10;;;7.70;34.50;;;;;;5033315;28;20391;-71
2021/03/12 04:55:37;;;;;;;10.63;2.67;;;7.70;34.40;;;;;;5033229;28;20492;-72
2021/03/12 04:58:03;;;;;;;11.45;2.55;;;7.70;34.70;;;;;;5033168;28;20395;-72
2021/03/12 05:00:31;;;;;;;10.20;2.42;;;7.70;34.40;;;;;;5032822;28;20752;-72
2021/03/12 05:02:57;;;;;;;11.52;2.80;;;7.70;34.60;;;;;;5027271;28;20405;-72
2021/03/12 05:05:23;;;;;;;6.35;2.30;;;7.70;34.60;;;;;;5012822;28;20499;-72
2021/03/12 05:07:49;;;;;;;9.27;2.60;;;7.70;34.80;;;;;;5012768;28;20500;-72
2021/03/12 05:10:14;;;;;;;12.38;2.60;;;7.70;35.20;;;;;;5012624;28;20456;-71
2021/03/12 05:12:40;;;;;;;16.90;2.85;;;7.70;35.40;;;;;;5015907;28;20895;-71
2021/03/12 05:15:07;;;;;;;15.55;2.90;;;7.70;35.70;;;;;;5027669;28;20399;-72
2021/03/12 05:17:32;;;;;;;9.30;2.60;;;7.60;35.90;;;;;;5024582;28;20464;-72
2021/03/12 05:19:58;;;;;;;13.20;2.80;;;7.60;37.00;;;;;;5015109;28;20397;-72
2021/03/12 05:22:23;;;;;;;15.80;2.90;;;7.70;37.10;;;;;;5014306;28;20552;-74
2021/03/12 05:24:49;;;;;;;12.40;3.37;;;7.60;37.90;;;;;;5012147;28;20424;-72
2021/03/12 05:27:14;;;;;;;16.93;3.47;;;7.60;38.30;;;;;;5012382;28;20384;-73
2021/03/12 05:29:40;;;;;;;13.50;3.20;;;7.60;39.30;;;;;;5029205;28;20490;-73
2021/03/12 05:32:06;;;;;;;15.30;3.60;;;7.50;40.00;;;;;;5032242;28;20796;-73
2021/03/12 05:34:31;;;;;;;16.77;4.27;;;7.40;41.90;;;;;;5032255;28;20383;-73
2021/03/12 05:36:57;;;;;;;14.10;3.57;;;7.40;41.90;;;;;;5032298;28;20384;-72
2021/03/12 05:39:23;;;;;;;18.85;3.50;;;7.30;43.40;;;;;;5014260;28;20466;-73
2021/03/12 05:41:49;;;;;;;21.70;3.90;;;7.40;42.20;;;;;;5015855;28;20393;-73
2021/03/12 05:44:17;;;;;;;23.00;5.05;;;7.40;42.50;;;;;;5013422;28;20438;-73
2021/03/12 05:46:43;;;;;;;16.53;4.30;;;7.30;43.90;;;;;;5032371;28;20879;-73
2021/03/12 05:49:08;;;;;;;21.13;3.88;;;7.30;44.40;;;;;;5032043;28;20375;-73
2021/03/12 05:51:35;;;;;;;21.50;3.73;;;7.40;45.40;;;;;;5032784;28;20428;-73
2021/03/12 05:54:05;;;;;;;12.52;4.40;;;7.60;42.70;;;;;;5032487;28;20390;-73
2021/03/12 05:56:35;;;;;;;16.80;4.05;;;7.50;43.20;;;;;;5024642;28;20396;-72
2021/03/12 05:59:02;;;;;;;19.75;4.20;;;7.60;42.50;;;;;;5014389;28;20902;-72
2021/03/12 06:01:30;;;;;;;21.02;4.60;;;7.60;42.30;;;;;;5014180;28;20403;-73
2021/03/12 06:03:55;;;;;;;18.60;3.97;;;7.50;42.70;;;;;;5013861;28;20412;-72
2021/03/12 06:06:21;;;;;;;17.27;4.10;;;7.50;42.70;;;;;;5013380;28;20815;-73
2021/03/12 06:08:46;;;;;;;20.70;3.93;;;7.50;42.90;;;;;;5013262;28;20392;-71
2021/03/12 06:11:12;;;;;;;19.90;4.43;;;7.50;41.70;;;;;;5028783;28;20458;-72
2021/03/12 06:13:54;;;;;;;16.37;4.07;;;7.50;41.30;;;;;;5033636;28;20394;-74
2021/03/12 06:16:27;;;;;;;14.93;3.80;;;7.50;40.90;;;;;;5033689;28;20405;-72
2021/03/12 06:19:15;;;;;;;17.07;3.50;;;7.50;40.10;;;;;;5013845;28;20433;-73
2021/03/12 06:21:44;;;;;;;21.48;4.25;;;7.50;39.60;;;;;;5012534;28;20426;-73
2021/03/12 06:24:32;;;;;;;13.77;4.03;;;7.50;39.80;;;;;;5018426;28;20817;-73
2021/03/12 06:26:58;;;;;;;15.35;4.75;;;7.60;39.30;;;;;;5016039;28;20421;-73
2021/03/12 06:29:38;;;;;;;19.92;3.95;;;7.60;39.50;;;;;;5011020;28;20396;-72
2021/03/12 06:32:05;;;;;;;16.02;4.07;;;7.60;39.70;;;;;;5011476;28;20393;-73
2021/03/12 06:34:32;;;;;;;19.17;3.80;;;7.60;39.90;;;;;;5011697;28;20396;-75
2021/03/12 06:36:58;;;;;;;20.77;4.38;;;7.70;39.60;;;;;;5012662;28;20393;-73
2021/03/12 06:39:34;;;;;;;17.05;4.28;;;7.70;40.00;;;;;;5030171;28;20899;-73
2021/03/12 06:42:06;;;;;;;22.10;4.53;;;7.80;39.90;;;;;;4993054;28;20505;-73
2021/03/12 06:44:33;;;;;;;17.40;3.80;;;7.90;39.50;;;;;;4993440;28;20398;-75
2021/03/12 06:47:00;;;;;;;26.38;5.22;;;7.90;39.60;;;;;;4993788;28;20374;-74
2021/03/12 06:49:26;;;;;;;21.00;4.68;;;7.90;39.60;;;;;;4993532;28;20956;-73
2021/03/12 06:52:03;;;;;;;20.02;4.53;;;8.00;39.70;;;;;;4999260;28;20393;-74
2021/03/12 06:54:32;;;;;;;22.20;4.40;;;8.00;39.10;;;;;;5023226;28;20460;-73
2021/03/12 06:56:59;;;;;;;22.50;5.00;;;8.00;39.10;;;;;;5031469;28;21774;-72
2021/03/12 06:59:32;;;;;;;25.25;4.50;;;8.10;38.70;;;;;;5031907;28;20379;-73
2021/03/12 07:02:06;;;;;;;19.95;4.60;;;8.10;39.40;;;;;;5014437;28;20432;-73
2021/03/12 07:04:32;;;;;;;28.40;4.93;;;8.10;38.70;;;;;;5013503;28;20889;-75
2021/03/12 07:06:59;;;;;;;21.23;4.38;;;8.20;38.80;;;;;;5012685;28;20424;-73
2021/03/12 07:09:27;;;;;;;26.20;4.65;;;8.20;38.60;;;;;;5010939;28;20409;-74
2021/03/12 07:12:04;;;;;;;26.08;4.75;;;8.20;38.60;;;;;;5010649;28;20949;-73
2021/03/12 07:14:33;;;;;;;23.05;4.80;;;8.30;38.30;;;;;;5010831;28;20407;-73
2021/03/12 07:16:59;;;;;;;19.92;5.30;;;8.40;37.80;;;;;;5006871;28;20788;-73
2021/03/12 07:19:25;;;;;;;24.37;4.60;;;8.50;37.10;;;;;;4997709;28;20401;-74
2021/03/12 07:21:56;;;;;;;22.03;4.30;;;8.60;36.60;;;;;;5012922;28;20588;-73
2021/03/12 07:24:23;;;;;;;21.30;4.90;;;8.70;36.10;;;;;;5011929;28;20420;-71
2021/03/12 07:26:56;;;;;;;21.63;4.57;;;8.70;36.30;;;;;;5011284;28;20589;-74
2021/03/12 07:29:23;;;;;;;19.33;4.30;;;8.70;36.30;;;;;;5011122;28;20885;-72
2021/03/12 07:31:54;;;;;;;17.42;4.25;;;8.70;35.50;;;;;;5011064;28;20413;-73
2021/03/12 07:34:24;;;;;;;20.45;4.72;;;8.70;36.20;;;;;;5022914;28;20430;-75
2021/03/12 07:36:54;;;;;;;23.25;4.82;;;8.70;36.30;;;;;;5030259;28;20395;-71
2021/03/12 07:39:24;;;;;;;23.95;4.10;;;8.70;36.50;;;;;;5030147;28;20391;-74
2021/03/12 07:41:51;;;;;;;21.33;4.47;;;8.70;36.30;;;;;;5012230;28;20415;-73
2021/03/12 07:44:20;;;;;;;19.27;5.27;;;8.70;36.30;;;;;;5010637;28;20412;-74
2021/03/12 07:46:49;;;;;;;22.55;5.15;;;8.70;36.60;;;;;;5011172;28;20385;-73
2021/03/12 07:49:32;;;;;;;23.00;4.80;;;8.70;36.50;;;;;;5014382;28;20408;-72
2021/03/12 07:51:59;;;;;;;26.58;4.47;;;8.90;36.10;;;;;;5015921;28;20380;-72
2021/03/12 07:54:37;;;;;;;29.83;5.53;;;9.00;35.80;;;;;;5014678;28;20430;-72
2021/03/12 07:57:07;;;;;;;21.40;4.40;;;9.30;34.40;;;;;;4997498;28;20926;-73
2021/03/12 07:59:48;;;;;;;21.92;5.18;;;9.30;33.40;;;;;;5013798;28;20866;-74
2021/03/12 08:02:18;;;;;;;21.30;4.90;;;9.40;33.50;;;;;;5013492;28;20469;-73
2021/03/12 08:04:46;;;;;;;18.05;4.22;;;9.30;33.40;;;;;;5015915;28;20483;-73
2021/03/12 08:07:18;;;;;;;26.95;5.10;;;9.30;33.50;;;;;;5014298;28;20408;-73
2021/03/12 08:09:48;;;;;;;25.45;4.97;;;9.40;33.60;;;;;;5013489;28;20389;-73
2021/03/12 08:12:39;;;;;;;21.95;5.40;;;9.40;33.00;;;;;;5013496;28;20380;-73
2021/03/12 08:15:22;;;;;;;19.45;4.80;;;9.40;33.50;;;;;;5014049;28;20479;-73
2021/03/12 08:17:56;;;;;;;25.73;5.22;;;9.40;33.40;;;;;;4995398;28;20405;-73
2021/03/12 08:20:25;;;;;;;19.08;4.00;;;9.50;32.20;;;;;;5015013;28;20393;-74
2021/03/12 08:22:57;;;;;;;20.45;4.53;;;9.50;32.40;;;;;;5013386;28;20405;-75
2021/03/12 08:25:32;;;;;;;21.42;4.40;;;9.50;32.40;;;;;;5013629;28;20419;-76
2021/03/12 08:28:07;;;;;;;16.27;4.17;;;9.60;32.00;;;;;;5013316;28;20384;-73
2021/03/12 08:30:35;;;;;;;20.48;4.30;;;9.60;32.20;;;;;;5016726;28;20430;-73
2021/03/12 08:33:31;;;;;;;17.65;4.65;;;9.70;31.50;;;;;;5024778;28;20412;-73
2021/03/12 08:35:58;;;;;;;23.70;4.55;;;9.70;31.70;;;;;;5012459;28;20475;-73
2021/03/12 08:38:27;;;;;;;28.27;5.45;;;9.80;31.20;;;;;;5013279;28;20388;-74
2021/03/12 08:40:55;;;;;;;24.80;4.60;;;9.90;30.50;;;;;;5013020;28;20667;-74
2021/03/12 08:43:24;;;;;;;27.25;4.95;;;10.00;30.20;;;;;;5013009;28;20420;-73
2021/03/12 08:45:54;;;;;;;22.60;4.60;;;10.10;30.00;;;;;;5012721;28;20377;-74
2021/03/12 08:48:33;;;;;;;28.27;5.00;;;10.20;29.80;;;;;;5012298;28;20875;-74
2021/03/12 08:51:14;;;;;;;27.83;4.80;;;10.30;29.10;;;;;;5021595;28;20464;-73
2021/03/12 08:53:44;;;;;;;27.02;4.25;;;10.50;29.10;;;;;;5032692;28;20391;-73
2021/03/12 08:56:10;;;;;;;21.70;4.88;;;10.40;28.90;;;;;;5029717;28;20398;-73
2021/03/12 08:58:38;;;;;;;25.85;4.85;;;10.50;29.00;;;;;;5032865;28;20749;-74
2021/03/12 09:01:15;;;;;;;19.17;4.10;;;10.50;28.70;;;;;;5032145;28;21000;-72
2021/03/12 09:03:47;;;;;;;24.15;4.68;;;10.40;28.60;;;;;;5021243;28;20408;-74
2021/03/12 09:06:17;;;;;;;19.80;4.38;;;10.30;29.20;;;;;;5012547;28;20384;-73
2021/03/12 09:08:44;;;;;;;18.00;3.70;;;10.20;29.50;;;;;;5012521;28;20388;-73
2021/03/12 09:11:19;;;;;;;18.60;4.28;;;10.30;29.20;;;;;;5012399;28;20789;-73
2021/03/12 09:13:46;;;;;;;18.17;4.32;;;10.30;29.00;;;;;;5027702;28;20399;-72
2021/03/12 09:16:21;;;;;;;25.83;5.23;;;10.40;29.20;;;;;;5032678;28;20388;-74
2021/03/12 09:18:47;;;;;;;22.95;4.28;;;10.50;28.40;;;;;;5012223;28;20793;-71
2021/03/12 09:21:45;;;;;;;18.00;4.20;;;10.50;28.20;;;;;;5013123;28;20393;-73
2021/03/12 09:24:10;;;;;;;20.00;3.85;;;10.40;28.90;;;;;;5012762;28;20527;-71
2021/03/12 09:26:37;;;;;;;31.33;4.95;;;10.40;28.60;;;;;;5013407;28;20472;-71
2021/03/12 09:29:07;;;;;;;18.65;4.30;;;10.50;28.30;;;;;;5013368;28;20392;-71
2021/03/12 09:31:41;;;;;;;21.97;4.73;;;10.50;28.10;;;;;;5013712;28;20388;-69
2021/03/12 09:34:12;;;;;;;20.73;4.93;;;10.60;28.00;;;;;;5014642;28;20412;-72
2021/03/12 09:36:43;;;;;;;23.33;5.20;;;10.80;26.60;;;;;;5027205;28;20444;-72
2021/03/12 09:39:20;;;;;;;16.83;4.30;;;10.80;27.00;;;;;;5033187;28;20398;-73
2021/03/12 09:42:03;;;;;;;21.38;4.82;;;10.90;26.20;;;;;;5018750;28;20408;-72
2021/03/12 09:44:30;;;;;;;18.83;4.33;;;11.00;25.50;;;;;;5021404;28;20429;-74
2021/03/12 09:47:00;;;;;;;18.20;4.30;;;10.90;24.20;;;;;;5017357;28;20393;-73
2021/03/12 09:49:33;;;;;;;23.33;4.70;;;10.90;24.70;;;;;;5020664;28;20395;-73
2021/03/12 09:52:21;;;;;;;24.73;4.13;;;11.00;24.20;;;;;;5035328;28;20391;-76
2021/03/12 09:54:49;;;;;;;26.75;5.00;;;11.00;24.30;;;;;;5017691;28;20431;-72
2021/03/12 09:57:19;;;;;;;26.70;5.10;;;11.10;24.60;;;;;;5018156;28;20387;-72
2021/03/12 09:59:54;;;;;;;23.07;4.30;;;11.50;23.20;;;;;;5003047;28;20428;-73
2021/03/12 10:02:20;;;;;;;15.37;4.30;;;11.70;23.30;;;;;;5018086;28;20823;-73
2021/03/12 10:04:56;;;;;;;20.80;4.40;;;11.80;21.80;;;;;;5012507;28;20400;-74
2021/03/12 10:07:21;;;;;;;23.52;4.88;;;12.00;21.90;;;;;;5012818;28;20444;-73
2021/03/12 10:09:49;;;;;;;20.67;4.40;;;11.90;21.90;;;;;;5012268;28;20480;-72
2021/03/12 10:12:25;;;;;;;20.27;3.83;;;12.10;21.30;;;;;;5023074;28;20395;-72
2021/03/12 10:15:12;;;;;;;22.52;4.45;;;12.00;20.40;;;;;;5008484;28;20397;-73
2021/03/12 10:17:39;;;;;;;18.00;4.38;;;11.80;20.50;;;;;;4994700;28;20428;-72
2021/03/12 10:20:20;;;;;;;16.10;3.83;;;11.70;21.40;;;;;;4995176;28;20389;-74
2021/03/12 10:22:56;;;;;;;21.80;4.35;;;11.80;21.30;;;;;;5015121;28;20489;-72
2021/03/12 10:25:23;;;;;;;22.53;3.67;;;11.70;20.80;;;;;;5015599;28;20955;-73
2021/03/12 10:27:51;;;;;;;18.70;3.63;;;11.50;21.70;;;;;;5010712;28;20432;-73
2021/03/12 10:30:21;;;;;;;21.83;4.80;;;11.40;21.80;;;;;;5016674;28;20394;-74
2021/03/12 10:32:52;;;;;;;20.00;3.33;;;11.40;22.20;;;;;;4994826;28;20409;-73
2021/03/12 10:35:27;;;;;;;15.40;3.10;;;11.30;21.60;;;;;;4995266;28;20744;-73
2021/03/12 10:37:58;;;;;;;16.13;3.60;;;11.10;21.30;;;;;;4998183;28;20401;-74
2021/03/12 10:40:26;;;;;;;16.80;3.13;;;11.20;21.00;;;;;;5011948;28;20493;-72
2021/03/12 10:42:52;;;;;;;18.23;3.75;;;11.30;21.00;;;;;;5021078;28;20467;-72
2021/03/12 10:45:24;;;;;;;14.57;3.50;;;11.40;20.20;;;;;;5010719;28;20422;-72
2021/03/12 10:48:00;;;;;;;17.20;4.05;;;11.60;19.70;;;;;;5017104;28;20401;-73
2021/03/12 10:50:27;;;;;;;22.02;3.63;;;11.90;19.10;;;;;;5013985;28;20380;-73
2021/03/12 10:53:09;;;;;;;15.48;3.45;;;11.90;18.30;;;;;;5028817;28;20406;-74
2021/03/12 10:55:38;;;;;;;11.85;3.50;;;11.80;19.00;;;;;;4998532;28;20432;-73
2021/03/12 10:58:07;;;;;;;14.77;3.40;;;11.70;18.90;;;;;;5032255;28;20478;-73
2021/03/12 11:00:33;;;;;;;16.08;3.20;;;11.80;19.10;;;;;;5000021;28;20447;-72
2021/03/12 11:03:01;;;;;;;21.40;4.00;;;12.00;18.40;;;;;;5028525;28;20444;-72
2021/03/12 11:05:28;;;;;;;17.20;3.80;;;12.10;18.20;;;;;;5013946;28;20450;-72
2021/03/12 11:07:54;;;;;;;20.30;4.20;;;12.00;18.00;;;;;;5015776;28;20405;-73
2021/03/12 11:10:20;;;;;;;19.43;3.47;;;12.00;18.10;;;;;;5013318;28;20477;-73
2021/03/12 11:12:49;;;;;;;12.75;3.30;;;12.20;18.00;;;;;;5021502;28;20421;-74
2021/03/12 11:15:17;;;;;;;15.50;3.40;;;12.30;17.60;;;;;;5031333;28;20418;-73
2021/03/12 11:17:47;;;;;;;19.98;4.15;;;12.30;18.00;;;;;;5012933;28;20396;-73
2021/03/12 11:20:15;;;;;;;13.80;3.50;;;12.40;17.70;;;;;;5011401;28;20778;-73
2021/03/12 11:22:41;;;;;;;18.75;3.50;;;12.50;16.90;;;;;;5027466;28;20498;-72
2021/03/12 11:25:08;;;;;;;15.13;3.42;;;12.70;17.20;;;;;;5022959;28;20900;-73
2021/03/12 11:27:33;;;;;;;17.20;3.60;;;12.90;16.70;;;;;;5003654;28;20401;-74
2021/03/12 11:30:01;;;;;;;11.50;3.13;;;13.10;16.00;;;;;;5029451;28;20398;-73
2021/03/12 11:32:27;;;;;;;17.50;3.67;;;13.10;15.50;;;;;;5027764;28;20518;-73
2021/03/12 11:34:53;;;;;;;16.17;3.78;;;12.90;15.70;;;;;;5010550;28;20416;-72
2021/03/12 11:37:19;;;;;;;16.48;3.58;;;12.80;16.40;;;;;;5010417;28;20393;-73
2021/03/12 11:39:44;;;;;;;15.63;3.60;;;12.80;15.60;;;;;;5023326;28;20406;-71
2021/03/12 11:42:13;;;;;;;16.05;3.10;;;12.70;15.70;;;;;;4994553;28;20798;-75
2021/03/12 11:44:39;;;;;;;15.15;3.65;;;12.80;15.40;;;;;;5011446;28;20412;-71
2021/03/12 11:47:04;;;;;;;12.30;3.20;;;12.90;15.50;;;;;;5010224;28;20389;-71
2021/03/12 11:49:30;;;;;;;14.03;3.50;;;12.90;15.20;;;;;;5010188;28;21005;-73
2021/03/12 11:51:56;;;;;;;18.10;3.60;;;12.80;15.20;;;;;;5010109;28;20885;-74
2021/03/12 11:54:22;;;;;;;10.75;3.10;;;12.90;14.60;;;;;;5021570;28;20394;-72
2021/03/12 11:56:47;;;;;;;13.43;3.50;;;12.90;14.70;;;;;;5020335;28;20391;-73
2021/03/12 11:59:13;;;;;;;15.98;4.05;;;12.90;14.60;;;;;;5011299;28;20503;-72
2021/03/12 12:01:39;;;;;;;12.50;3.20;;;13.00;14.10;;;;;;5009909;28;20885;-71
2021/03/12 12:04:04;;;;;;;10.00;2.95;;;13.00;14.50;;;;;;5026374;28;20398;-73
2021/03/12 12:06:30;;;;;;;14.20;3.60;;;13.00;14.60;;;;;;5021927;28;21094;-76
2021/03/12 12:08:56;;;;;;;10.33;3.43;;;13.00;14.40;;;;;;5013809;28;20498;-73
2021/03/12 12:11:25;;;;;;;11.90;2.80;;;13.00;14.60;;;;;;4995862;28;20435;-75
2021/03/12 12:13:50;;;;;;;22.40;2.90;;;12.90;14.20;;;;;;5003835;28;20421;-72
2021/03/12 12:16:16;;;;;;;11.00;3.43;;;12.80;14.60;;;;;;5019308;28;20488;-72
2021/03/12 12:18:42;;;;;;;12.93;3.17;;;12.70;14.60;;;;;;5014078;28;20405;-73
2021/03/12 12:21:11;;;;;;;14.75;3.50;;;12.40;14.80;;;;;;5002822;28;20424;-71
2021/03/12 12:23:37;;;;;;;13.25;3.70;;;12.10;15.70;;;;;;4990970;28;20453;-73
2021/03/12 12:26:03;;;;;;;17.10;4.03;;;11.90;16.10;;;;;;4999073;28;20423;-73
2021/03/12 12:28:29;;;;;;;13.50;3.00;;;11.80;16.30;;;;;;5008069;28;20953;-75
2021/03/12 12:30:55;;;;;;;15.65;3.10;;;11.70;16.90;;;;;;5015410;28;20890;-73
2021/03/12 12:33:23;;;;;;;13.10;2.90;;;11.60;16.70;;;;;;5033551;28;20415;-72
2021/03/12 12:35:48;;;;;;;17.63;3.30;;;11.50;17.60;;;;;;5032514;28;20420;-73
2021/03/12 12:38:14;;;;;;;15.80;3.20;;;11.50;18.20;;;;;;5016510;28;20407;-73
2021/03/12 12:40:39;;;;;;;15.10;3.30;;;11.50;18.20;;;;;;5020203;28;20916;-72
2021/03/12 12:43:05;;;;;;;11.10;2.80;;;11.60;18.70;;;;;;5025620;28;20409;-73
2021/03/12 12:45:31;;;;;;;16.77;3.00;;;11.80;17.60;;;;;;5030966;28;20527;-72
2021/03/12 12:47:57;;;;;;;10.53;3.43;;;12.00;17.00;;;;;;5016984;28;20904;-72
2021/03/12 12:50:23;;;;;;;15.43;3.05;;;12.30;16.60;;;;;;5015711;28;20443;-72
2021/03/12 12:52:48;;;;;;;13.32;3.38;;;12.50;15.80;;;;;;5015670;28;20393;-75